Time;durP1;ratioP1;P1;durP2;ratioP2;P2;SDS_P1;SDS_P2;PMS_P1;PMS_P2;Temp;Humidity;BMP_temperature;BMP_pressure;BME280_temperature;BME280_humidity;BME280_pressure;Samples;Min_cycle;Max_cycle;Signal;HPM_P1;HPM_P2
2023/12/18 00:01:29;;;;;;;17.05;5.00;;;;;;;6.90;100.00;102803.38;6228805;28;20057;-71
2023/12/18 00:04:30;;;;;;;20.20;5.15;;;;;;;6.89;100.00;102807.75;6228490;28;20052;-69
2023/12/18 00:07:31;;;;;;;13.23;4.63;;;;;;;6.94;100.00;102808.59;6228617;28;20057;-70
2023/12/18 00:10:34;;;;;;;17.67;5.20;;;;;;;6.95;100.00;102804.22;6228720;28;20053;-69
2023/12/18 00:13:35;;;;;;;13.75;5.93;;;;;;;6.93;100.00;102812.09;6227858;28;20362;-70
2023/12/18 00:16:36;;;;;;;19.05;5.55;;;;;;;6.90;100.00;102816.47;6223729;28;20046;-70
2023/12/18 00:19:38;;;;;;;17.45;5.53;;;;;;;6.97;100.00;102821.66;6220296;28;20058;-69
2023/12/18 00:22:39;;;;;;;17.70;5.75;;;;;;;6.90;100.00;102812.09;6223506;28;20054;-70
2023/12/18 00:25:42;;;;;;;17.98;5.40;;;;;;;6.96;100.00;102808.59;6223177;28;20046;-70
2023/12/18 00:28:44;;;;;;;17.02;6.22;;;;;;;6.91;100.00;102802.53;6227810;28;20145;-70
2023/12/18 00:31:47;;;;;;;21.35;6.18;;;;;;;6.90;100.00;102806.88;6228191;28;20061;-69
2023/12/18 00:34:49;;;;;;;13.57;6.25;;;;;;;6.79;100.00;102813.91;6227572;28;20164;-70
2023/12/18 00:37:50;;;;;;;15.40;5.68;;;;;;;6.79;100.00;102821.75;6227982;28;20053;-70
2023/12/18 00:40:53;;;;;;;11.15;6.05;;;;;;;6.78;100.00;102812.16;6228128;28;20057;-70
2023/12/18 00:43:54;;;;;;;17.42;6.43;;;;;;;6.77;100.00;102820.91;6227090;28;20062;-70
2023/12/18 00:46:55;;;;;;;20.42;5.80;;;;;;;6.87;100.00;102825.19;6227977;28;20354;-70
2023/12/18 00:49:56;;;;;;;19.00;6.93;;;;;;;6.78;100.00;102818.25;6227817;28;20050;-70
2023/12/18 00:52:58;;;;;;;17.10;6.60;;;;;;;6.78;100.00;102814.78;6227295;28;20054;-70
2023/12/18 00:56:00;;;;;;;20.58;6.00;;;;;;;6.76;100.00;102806.94;6227223;28;20061;-70
2023/12/18 00:59:02;;;;;;;14.00;6.32;;;;;;;6.84;100.00;102802.53;6227838;28;20061;-70
2023/12/18 01:02:04;;;;;;;20.70;6.43;;;;;;;6.81;100.00;102794.75;6227305;28;20058;-70
2023/12/18 01:05:06;;;;;;;12.27;5.63;;;;;;;6.76;100.00;102783.41;6227178;28;20050;-70
2023/12/18 01:08:08;;;;;;;15.75;7.05;;;;;;;6.68;100.00;102777.38;6227375;28;20053;-70
2023/12/18 01:11:11;;;;;;;20.98;5.95;;;;;;;6.75;100.00;102775.59;6226888;28;20050;-69
2023/12/18 01:14:12;;;;;;;16.23;6.68;;;;;;;6.74;100.00;102782.56;6226800;28;20053;-69
2023/12/18 01:17:13;;;;;;;19.92;6.60;;;;;;;6.74;100.00;102777.34;6227354;28;20049;-69
2023/12/18 01:20:15;;;;;;;18.23;6.20;;;;;;;6.72;100.00;102762.53;6227237;28;20053;-69
2023/12/18 01:23:16;;;;;;;19.45;6.82;;;;;;;6.76;100.00;102767.72;6226801;28;20054;-70
2023/12/18 01:26:19;;;;;;;19.08;7.40;;;;;;;6.74;100.00;102777.34;6226645;28;20042;-69
2023/12/18 01:29:20;;;;;;;19.48;7.55;;;;;;;6.76;100.00;102772.97;6226925;28;20061;-69
2023/12/18 01:32:22;;;;;;;22.27;6.80;;;;;;;6.76;100.00;102762.50;6226836;28;20053;-69
2023/12/18 01:35:23;;;;;;;22.55;7.30;;;;;;;6.73;100.00;102765.16;6226498;28;20045;-70
2023/12/18 01:38:24;;;;;;;15.85;6.53;;;;;;;6.70;100.00;102748.63;6225803;28;20050;-69
2023/12/18 01:41:27;;;;;;;30.80;7.10;;;;;;;6.69;100.00;102749.50;6226452;28;20053;-70
2023/12/18 01:44:28;;;;;;;26.48;8.38;;;;;;;6.69;100.00;102755.59;6225954;28;20057;-72
2023/12/18 01:47:30;;;;;;;16.20;6.65;;;;;;;6.71;100.00;102740.75;6226550;28;20057;-70
2023/12/18 01:50:32;;;;;;;22.33;7.53;;;;;;;6.67;100.00;102738.19;6226404;28;20481;-70
2023/12/18 01:53:37;;;;;;;16.30;6.75;;;;;;;6.69;100.00;102728.59;6225934;28;20057;-69
2023/12/18 01:56:41;;;;;;;12.60;6.10;;;;;;;6.70;100.00;102752.09;6216677;28;20677;-71
2023/12/18 01:59:42;;;;;;;13.55;6.35;;;;;;;6.72;100.00;102752.97;6213046;28;20057;-70
2023/12/18 02:02:44;;;;;;;11.38;5.80;;;;;;;6.78;100.00;102760.78;6217663;28;20339;-69
2023/12/18 02:05:47;;;;;;;17.58;7.15;;;;;;;6.79;100.00;102749.44;6215350;28;20045;-70
2023/12/18 02:08:48;;;;;;;17.45;7.00;;;;;;;6.78;100.00;102746.84;6225963;28;20057;-70
2023/12/18 02:11:51;;;;;;;17.08;6.18;;;;;;;6.78;100.00;102746.84;6212874;28;20359;-70
2023/12/18 02:14:53;;;;;;;17.63;6.93;;;;;;;6.77;100.00;102743.38;6217446;28;20046;-69
2023/12/18 02:17:55;;;;;;;24.58;6.47;;;;;;;6.82;100.00;102754.66;6218271;28;20050;-70
2023/12/18 02:20:56;;;;;;;19.30;5.95;;;;;;;6.68;100.00;102745.16;6226155;28;20184;-70
2023/12/18 02:23:59;;;;;;;13.90;6.47;;;;;;;6.66;100.00;102739.91;6225103;28;20351;-70
2023/12/18 02:27:00;;;;;;;15.48;6.70;;;;;;;6.65;100.00;102732.97;6225932;28;20050;-69
2023/12/18 02:30:02;;;;;;;18.05;7.05;;;;;;;6.67;100.00;102732.94;6225839;28;20180;-69
2023/12/18 02:33:04;;;;;;;16.48;6.80;;;;;;;6.64;100.00;102736.47;6225741;28;20053;-70
2023/12/18 02:36:06;;;;;;;26.15;7.10;;;;;;;6.72;100.00;102741.63;6225300;28;20057;-69
2023/12/18 02:39:08;;;;;;;21.58;7.35;;;;;;;6.69;100.00;102745.16;6225970;28;20053;-69
2023/12/18 02:42:09;;;;;;;22.13;7.05;;;;;;;6.62;100.00;102748.66;6225355;28;20057;-69
2023/12/18 02:45:11;;;;;;;18.33;7.40;;;;;;;6.61;100.00;102749.53;6225212;28;20049;-69
2023/12/18 02:48:12;;;;;;;16.85;6.38;;;;;;;6.64;100.00;102748.66;6221802;28;20042;-69
2023/12/18 02:51:13;;;;;;;18.38;7.38;;;;;;;6.68;100.00;102735.56;6222674;28;20049;-69
2023/12/18 02:54:16;;;;;;;17.83;7.32;;;;;;;6.52;100.00;102737.38;6235885;22;20351;-75
2023/12/18 02:57:17;;;;;;;17.80;7.22;;;;;;;6.57;100.00;102739.97;6206275;28;20049;-74
2023/12/18 03:00:19;;;;;;;19.88;7.85;;;;;;;6.50;100.00;102744.38;6206001;28;20058;-74
2023/12/18 03:03:20;;;;;;;17.15;7.00;;;;;;;6.43;100.00;102733.94;6205601;28;20058;-75
2023/12/18 03:06:22;;;;;;;16.88;6.95;;;;;;;6.53;100.00;102733.03;6205248;28;20053;-75
2023/12/18 03:09:24;;;;;;;17.42;7.88;;;;;;;6.44;100.00;102730.44;6205997;28;20573;-74
2023/12/18 03:12:26;;;;;;;21.83;7.07;;;;;;;6.50;100.00;102722.59;6205554;28;20050;-74
2023/12/18 03:15:28;;;;;;;20.70;7.28;;;;;;;6.47;100.00;102706.94;6205113;28;20058;-74
2023/12/18 03:18:29;;;;;;;24.60;7.65;;;;;;;6.46;100.00;102710.44;6205800;28;20051;-74
2023/12/18 03:21:31;;;;;;;15.43;6.93;;;;;;;6.51;100.00;102700.81;6205220;28;20439;-74
2023/12/18 03:24:33;;;;;;;20.02;8.48;;;;;;;6.53;100.00;102702.53;6205140;28;20057;-74
2023/12/18 03:27:35;;;;;;;18.83;7.05;;;;;;;6.48;100.00;102693.88;6205267;28;20366;-74
2023/12/18 03:30:36;;;;;;;20.25;8.55;;;;;;;6.45;100.00;102690.38;6205238;28;20058;-75
2023/12/18 03:33:37;;;;;;;18.27;8.73;;;;;;;6.43;100.00;102694.78;6204448;28;20359;-74
2023/12/18 03:36:39;;;;;;;19.95;7.95;;;;;;;6.41;100.00;102692.19;6204862;28;20053;-74
2023/12/18 03:39:41;;;;;;;23.45;7.70;;;;;;;6.43;100.00;102692.16;6205254;28;20351;-74
2023/12/18 03:42:43;;;;;;;18.20;8.32;;;;;;;6.42;100.00;102699.13;6204622;28;20057;-74
2023/12/18 03:45:44;;;;;;;27.35;9.07;;;;;;;6.39;100.00;102696.53;6204385;28;20340;-74
2023/12/18 03:48:45;;;;;;;24.10;8.93;;;;;;;6.32;100.00;102689.59;6205044;28;20065;-75
2023/12/18 03:51:47;;;;;;;23.83;9.90;;;;;;;6.32;100.00;102687.00;6204831;28;20436;-75
2023/12/18 03:54:49;;;;;;;36.15;9.05;;;;;;;6.33;100.00;102680.88;6201255;28;20046;-74
2023/12/18 03:57:51;;;;;;;18.48;8.48;;;;;;;6.30;100.00;102681.75;6204454;28;20328;-74
2023/12/18 04:00:52;;;;;;;26.55;8.82;;;;;;;6.31;100.00;102682.63;6200943;28;20454;-75
2023/12/18 04:03:53;;;;;;;25.42;9.32;;;;;;;6.25;100.00;102690.50;6192349;28;20100;-75
2023/12/18 04:06:55;;;;;;;21.17;8.73;;;;;;;6.23;100.00;102684.44;6191985;28;20055;-75
2023/12/18 04:09:57;;;;;;;33.17;9.80;;;;;;;6.27;100.00;102696.59;6190940;28;20042;-75
2023/12/18 04:12:59;;;;;;;23.63;9.38;;;;;;;6.21;100.00;102699.22;6191403;28;20201;-76
2023/12/18 04:16:00;;;;;;;31.27;10.55;;;;;;;6.19;100.00;102680.94;6191493;28;20051;-75
2023/12/18 04:19:01;;;;;;;24.13;9.63;;;;;;;6.25;100.00;102690.50;6189334;28;20054;-76
2023/12/18 04:22:03;;;;;;;28.45;10.90;;;;;;;6.26;100.00;102672.19;6192126;28;20081;-75
2023/12/18 04:25:07;;;;;;;20.90;10.18;;;;;;;6.14;100.00;102687.94;6210233;28;20453;-74
2023/12/18 04:28:08;;;;;;;27.77;9.88;;;;;;;6.16;100.00;102696.63;6212770;28;20442;-74
2023/12/18 04:31:10;;;;;;;27.35;10.52;;;;;;;6.12;100.00;102699.25;6218758;28;20053;-75
2023/12/18 04:34:11;;;;;;;29.70;10.32;;;;;;;6.08;100.00;102699.25;6204859;28;20046;-75
2023/12/18 04:37:12;;;;;;;20.38;9.32;;;;;;;6.11;100.00;102698.38;6203500;28;20049;-75
2023/12/18 04:40:15;;;;;;;30.50;10.50;;;;;;;6.09;100.00;102703.63;6203369;28;20050;-75
2023/12/18 04:43:17;;;;;;;25.13;10.05;;;;;;;6.14;100.00;102685.31;6203550;28;20474;-75
2023/12/18 04:46:18;;;;;;;29.60;10.43;;;;;;;6.15;100.00;102686.19;6211378;28;20043;-75
2023/12/18 04:49:19;;;;;;;19.02;8.77;;;;;;;6.18;100.00;102681.84;6227907;28;20075;-75
2023/12/18 04:52:21;;;;;;;37.22;11.05;;;;;;;6.14;100.00;102685.31;6227284;28;20054;-75
2023/12/18 04:55:24;;;;;;;21.00;9.57;;;;;;;6.10;100.00;102681.84;6227488;28;20058;-75
2023/12/18 04:58:25;;;;;;;22.20;9.55;;;;;;;6.04;100.00;102683.59;6227741;28;20042;-75
2023/12/18 05:01:27;;;;;;;24.02;10.15;;;;;;;6.02;100.00;102675.78;6222729;28;20077;-75
2023/12/18 05:04:28;;;;;;;34.92;10.02;;;;;;;5.98;100.00;102674.06;6218880;28;20054;-75
2023/12/18 05:07:29;;;;;;;24.90;10.55;;;;;;;5.99;100.00;102672.31;6227379;28;20045;-75
2023/12/18 05:10:32;;;;;;;22.98;9.80;;;;;;;6.07;100.00;102679.25;6227582;28;20050;-74
2023/12/18 05:13:33;;;;;;;26.20;10.25;;;;;;;6.09;100.00;102669.69;6226892;28;20061;-75
2023/12/18 05:16:35;;;;;;;25.83;10.32;;;;;;;6.12;100.00;102678.38;6227100;28;20065;-75
2023/12/18 05:19:36;;;;;;;23.40;10.38;;;;;;;6.06;100.00;102661.84;6214460;28;20050;-74
2023/12/18 05:22:38;;;;;;;21.80;9.52;;;;;;;6.10;100.00;102657.50;6227001;28;20073;-75
2023/12/18 05:25:40;;;;;;;22.67;9.60;;;;;;;6.06;100.00;102656.63;6226539;28;20355;-75
2023/12/18 05:28:42;;;;;;;23.90;9.55;;;;;;;6.09;100.00;102658.38;6227205;28;20049;-75
2023/12/18 05:31:43;;;;;;;23.52;9.32;;;;;;;6.06;100.00;102656.63;6226713;28;20351;-75
2023/12/18 05:34:44;;;;;;;27.90;9.35;;;;;;;6.06;100.00;102667.06;6226597;28;20053;-74
2023/12/18 05:37:45;;;;;;;20.88;9.15;;;;;;;6.04;100.00;102661.00;6226569;28;20457;-75
2023/12/18 05:40:48;;;;;;;31.33;10.85;;;;;;;6.05;100.00;102672.31;6227041;28;20057;-75
2023/12/18 05:43:49;;;;;;;24.88;9.88;;;;;;;5.97;100.00;102684.50;6226103;28;20061;-75
2023/12/18 05:46:51;;;;;;;22.00;9.93;;;;;;;5.96;100.00;102690.59;6226536;28;20053;-75
2023/12/18 05:49:52;;;;;;;25.65;10.70;;;;;;;5.97;100.00;102693.19;6226757;28;20438;-75
2023/12/18 05:52:53;;;;;;;24.13;10.30;;;;;;;6.02;100.00;102686.22;6226127;28;20061;-75
2023/12/18 05:55:56;;;;;;;23.67;9.00;;;;;;;6.03;100.00;102690.56;6226252;28;20085;-74
2023/12/18 05:58:59;;;;;;;18.52;8.35;;;;;;;6.05;100.00;102691.44;6226398;28;20045;-75
2023/12/18 06:02:00;;;;;;;28.23;10.23;;;;;;;5.99;100.00;102687.97;6226287;28;20049;-75
2023/12/18 06:05:02;;;;;;;26.95;9.38;;;;;;;6.00;100.00;102690.59;6225638;28;20362;-75
2023/12/18 06:08:04;;;;;;;35.42;9.88;;;;;;;5.98;100.00;102684.50;6226140;28;20425;-76
2023/12/18 06:11:07;;;;;;;32.42;11.20;;;;;;;6.05;100.00;102695.78;6225988;28;20086;-74
2023/12/18 06:14:08;;;;;;;29.80;10.07;;;;;;;6.06;100.00;102677.50;6225489;28;20427;-75
2023/12/18 06:17:10;;;;;;;27.55;9.77;;;;;;;6.13;100.00;102682.69;6225962;28;20054;-75
2023/12/18 06:20:11;;;;;;;24.38;9.10;;;;;;;6.14;100.00;102682.72;6225916;28;20049;-75
2023/12/18 06:23:13;;;;;;;24.15;9.82;;;;;;;6.14;100.00;102693.16;6221687;28;20038;-74
2023/12/18 06:26:15;;;;;;;28.95;9.77;;;;;;;6.11;100.00;102690.53;6211246;28;20439;-74
2023/12/18 06:29:17;;;;;;;21.42;9.65;;;;;;;6.16;100.00;102695.75;6209751;28;20046;-75
2023/12/18 06:32:18;;;;;;;25.83;9.77;;;;;;;6.18;100.00;102705.31;6201426;28;20056;-74
2023/12/18 06:35:19;;;;;;;27.70;9.57;;;;;;;6.07;100.00;102696.66;6201095;28;20046;-74
2023/12/18 06:38:21;;;;;;;27.65;9.35;;;;;;;6.09;100.00;102706.22;6209894;28;20046;-75
2023/12/18 06:41:23;;;;;;;23.75;9.30;;;;;;;6.09;100.00;102703.63;6225888;28;20434;-75
2023/12/18 06:44:25;;;;;;;26.63;10.38;;;;;;;6.13;100.00;102699.22;6225307;28;20057;-74
2023/12/18 06:47:26;;;;;;;22.88;9.80;;;;;;;6.13;100.00;102686.19;6190847;28;20050;-74
2023/12/18 06:50:28;;;;;;;21.88;9.90;;;;;;;6.25;100.00;102677.44;6187509;28;20358;-74
2023/12/18 06:53:29;;;;;;;31.05;10.00;;;;;;;6.22;100.00;102687.88;6186708;28;20057;-75
2023/12/18 06:56:32;;;;;;;26.58;9.40;;;;;;;6.17;100.00;102700.94;6177079;28;20061;-75
2023/12/18 06:59:34;;;;;;;24.98;10.63;;;;;;;6.23;100.00;102707.91;6193444;28;20050;-75
2023/12/18 07:02:35;;;;;;;28.65;9.45;;;;;;;6.27;100.00;102699.22;6209922;28;20132;-74
2023/12/18 07:05:37;;;;;;;23.25;8.93;;;;;;;6.21;100.00;102704.44;6225013;28;20057;-75
2023/12/18 07:08:38;;;;;;;20.92;8.73;;;;;;;6.32;100.00;102713.09;6225288;28;20458;-75
2023/12/18 07:11:41;;;;;;;28.00;10.05;;;;;;;6.27;100.00;102709.66;6225243;28;20053;-76
2023/12/18 07:14:43;;;;;;;23.50;9.63;;;;;;;6.28;100.00;102717.47;6224943;28;20104;-75
2023/12/18 07:17:44;;;;;;;25.17;9.75;;;;;;;6.30;100.00;102718.31;6225302;28;20050;-75
2023/12/18 07:20:46;;;;;;;22.92;8.90;;;;;;;6.33;100.00;102720.91;6222921;28;20057;-75
2023/12/18 07:23:47;;;;;;;24.50;9.57;;;;;;;6.28;100.00;102720.06;6209593;28;20072;-75
2023/12/18 07:26:50;;;;;;;22.13;9.02;;;;;;;6.33;100.00;102725.28;6225504;28;20053;-75
2023/12/18 07:29:51;;;;;;;31.88;9.95;;;;;;;6.28;100.00;102725.28;6217874;28;20193;-75
2023/12/18 07:32:52;;;;;;;27.67;9.98;;;;;;;6.32;100.00;102727.03;6216687;28;20049;-76
2023/12/18 07:35:54;;;;;;;25.92;9.95;;;;;;;6.32;100.00;102732.25;6226246;28;20453;-76
2023/12/18 07:38:55;;;;;;;23.33;10.02;;;;;;;6.32;100.00;102729.63;6229554;28;20041;-75
2023/12/18 07:41:58;;;;;;;21.23;9.25;;;;;;;6.35;100.00;102727.00;6211809;28;20049;-75
2023/12/18 07:44:59;;;;;;;27.30;10.15;;;;;;;6.34;100.00;102727.00;6206578;28;20061;-76
2023/12/18 07:48:00;;;;;;;20.10;9.38;;;;;;;6.35;100.00;102724.38;6193103;28;20043;-76
2023/12/18 07:51:02;;;;;;;20.42;8.88;;;;;;;6.39;100.00;102701.75;6192394;28;20379;-75
2023/12/18 07:54:04;;;;;;;22.63;10.05;;;;;;;6.32;100.00;102697.44;6197757;28;20043;-75
2023/12/18 07:57:07;;;;;;;32.60;10.00;;;;;;;6.35;100.00;102694.78;6197819;28;20271;-74
2023/12/18 08:00:09;;;;;;;21.20;8.43;;;;;;;6.39;100.00;102693.03;6214344;28;20046;-74
2023/12/18 08:03:10;;;;;;;26.88;10.13;;;;;;;6.39;100.00;102698.25;6219368;28;20049;-74
2023/12/18 08:06:12;;;;;;;21.77;8.95;;;;;;;6.34;100.00;102688.72;6233534;28;20365;-75
2023/12/18 08:09:13;;;;;;;15.55;7.90;;;;;;;6.34;100.00;102699.16;6250653;28;20049;-75
2023/12/18 08:12:16;;;;;;;23.83;8.50;;;;;;;6.40;100.00;102702.59;6250808;28;20053;-75
2023/12/18 08:15:17;;;;;;;21.77;9.68;;;;;;;6.41;100.00;102700.00;6250758;28;20049;-76
2023/12/18 08:18:18;;;;;;;24.60;9.68;;;;;;;6.40;100.00;102697.38;6251012;28;20049;-74
2023/12/18 08:21:20;;;;;;;23.75;9.38;;;;;;;6.43;100.00;102713.03;6251958;28;20053;-76
2023/12/18 08:24:21;;;;;;;24.00;9.48;;;;;;;6.42;100.00;102703.47;6252780;28;20049;-75
2023/12/18 08:27:24;;;;;;;23.33;9.68;;;;;;;6.48;100.00;102696.47;6253126;28;20068;-75
2023/12/18 08:30:25;;;;;;;19.90;9.75;;;;;;;6.46;100.00;102697.38;6253575;28;20046;-74
2023/12/18 08:33:26;;;;;;;19.38;8.85;;;;;;;6.42;100.00;102693.03;6252542;28;20057;-74
2023/12/18 08:36:29;;;;;;;25.33;9.25;;;;;;;6.48;100.00;102680.81;6252122;28;20045;-75
2023/12/18 08:39:30;;;;;;;20.13;9.20;;;;;;;6.61;100.00;102681.59;6252759;28;20041;-75
2023/12/18 08:42:33;;;;;;;22.90;10.13;;;;;;;6.37;100.00;102684.38;6252679;28;20438;-74
2023/12/18 08:45:35;;;;;;;20.55;8.68;;;;;;;6.42;100.00;102672.16;6252161;28;20060;-74
2023/12/18 08:48:37;;;;;;;22.80;9.23;;;;;;;6.42;100.00;102672.16;6252299;28;20049;-75
2023/12/18 08:51:38;;;;;;;23.38;9.15;;;;;;;6.42;100.00;102665.19;6252315;28;20049;-75
2023/12/18 08:54:39;;;;;;;24.52;8.93;;;;;;;6.52;100.00;102673.81;6257532;22;20053;-77
2023/12/18 08:57:43;;;;;;;27.30;9.68;;;;;;;6.64;100.00;102662.44;6233407;28;20049;-77
2023/12/18 09:00:44;;;;;;;24.88;9.23;;;;;;;6.46;100.00;102681.72;6252286;28;20049;-78
2023/12/18 09:03:45;;;;;;;24.05;9.35;;;;;;;6.47;100.00;102673.00;6230897;28;20439;-77
2023/12/18 09:06:47;;;;;;;25.80;8.52;;;;;;;6.46;100.00;102677.34;6227563;28;20060;-77
2023/12/18 09:09:48;;;;;;;17.58;8.38;;;;;;;6.53;100.00;102676.41;6227385;28;20431;-77
2023/12/18 09:12:52;;;;;;;25.85;10.27;;;;;;;6.55;100.00;102677.28;6227213;28;20053;-77
2023/12/18 09:15:53;;;;;;;28.05;9.35;;;;;;;6.63;100.00;102684.19;6226783;28;20072;-77
2023/12/18 09:18:55;;;;;;;25.20;10.48;;;;;;;6.61;100.00;102672.03;6227420;28;20046;-76
2023/12/18 09:21:56;;;;;;;25.77;11.25;;;;;;;6.60;100.00;102672.03;6227005;28;20061;-77
2023/12/18 09:24:57;;;;;;;28.20;12.07;;;;;;;6.56;100.00;102665.97;6226832;28;20046;-76
2023/12/18 09:28:00;;;;;;;21.90;10.70;;;;;;;6.57;100.00;102680.75;6227115;28;20046;-76
2023/12/18 09:31:01;;;;;;;29.13;11.80;;;;;;;6.56;100.00;102679.03;6227220;28;20060;-77
2023/12/18 09:34:03;;;;;;;31.60;12.50;;;;;;;6.47;100.00;102688.66;6226273;28;20084;-77
2023/12/18 09:37:04;;;;;;;32.45;13.35;;;;;;;6.50;100.00;102678.22;6226616;28;20057;-78
2023/12/18 09:40:07;;;;;;;21.80;10.80;;;;;;;6.56;100.00;102675.53;6226625;28;20050;-77
2023/12/18 09:43:10;;;;;;;33.20;13.15;;;;;;;6.55;100.00;102679.03;6226467;28;20482;-78
2023/12/18 09:46:13;;;;;;;31.17;13.65;;;;;;;6.56;100.00;102684.25;6226373;28;20054;-78
2023/12/18 09:49:14;;;;;;;26.23;11.55;;;;;;;6.60;100.00;102682.50;6226471;28;20324;-78
2023/12/18 09:52:18;;;;;;;29.58;13.77;;;;;;;6.58;100.00;102685.09;6236370;28;20053;-78
2023/12/18 09:55:20;;;;;;;33.58;12.68;;;;;;;6.54;100.00;102665.13;6237438;28;20049;-77
2023/12/18 09:58:24;;;;;;;30.15;13.43;;;;;;;6.55;100.00;102669.47;6235828;28;20049;-78
2023/12/18 10:01:26;;;;;;;31.70;14.38;;;;;;;6.59;100.00;102665.09;6235901;28;20140;-70
2023/12/18 10:04:27;;;;;;;25.27;12.15;;;;;;;6.62;100.00;102670.28;6237744;28;20042;-70
2023/12/18 10:07:29;;;;;;;30.30;11.70;;;;;;;6.63;100.00;102666.78;6239328;28;20053;-70
2023/12/18 10:10:30;;;;;;;26.80;14.02;;;;;;;6.60;100.00;102664.22;6250690;28;20057;-70
2023/12/18 10:13:35;;;;;;;26.63;12.65;;;;;;;6.64;100.00;102654.63;6241321;28;20064;-69
2023/12/18 10:16:39;;;;;;;34.08;12.82;;;;;;;6.53;100.00;102659.88;6236350;28;20353;-69
2023/12/18 10:19:42;;;;;;;25.70;12.75;;;;;;;6.48;100.00;102648.59;6249308;28;20045;-70
2023/12/18 10:22:44;;;;;;;34.00;12.85;;;;;;;6.58;100.00;102645.91;6244338;28;20472;-76
2023/12/18 10:25:46;;;;;;;28.90;14.05;;;;;;;6.64;100.00;102633.72;6243441;28;20128;-77
2023/12/18 10:28:50;;;;;;;30.70;12.93;;;;;;;6.63;100.00;102638.03;6238596;28;20050;-73
2023/12/18 10:31:52;;;;;;;29.75;12.55;;;;;;;6.63;100.00;102634.56;6243346;28;20046;-73
2023/12/18 10:34:54;;;;;;;29.73;13.70;;;;;;;6.57;100.00;102631.13;6257747;28;20334;-74
2023/12/18 10:37:56;;;;;;;35.00;14.50;;;;;;;6.46;100.00;102638.16;6260073;28;20045;-74
2023/12/18 10:41:02;;;;;;;33.67;14.55;;;;;;;6.48;100.00;102628.56;6263351;28;20048;-73
2023/12/18 10:44:05;;;;;;;32.75;13.23;;;;;;;6.49;100.00;102632.03;6265313;28;20053;-74
2023/12/18 10:47:08;;;;;;;32.63;13.65;;;;;;;6.45;100.00;102631.22;6258286;28;20124;-74
2023/12/18 10:50:12;;;;;;;35.78;14.43;;;;;;;6.54;100.00;102620.72;6257517;28;20041;-75
2023/12/18 10:53:17;;;;;;;40.25;14.63;;;;;;;6.53;100.00;102621.56;6258468;28;20045;-74
2023/12/18 10:56:21;;;;;;;36.45;14.00;;;;;;;6.46;100.00;102621.63;6264825;28;20434;-74
2023/12/18 10:59:26;;;;;;;31.08;13.52;;;;;;;6.51;100.00;102614.63;6250532;28;20052;-74
2023/12/18 11:02:28;;;;;;;38.60;14.52;;;;;;;6.41;100.00;102621.66;6253907;28;20451;-73
2023/12/18 11:05:30;;;;;;;30.40;14.60;;;;;;;6.40;100.00;102616.44;6249521;28;20176;-75
2023/12/18 11:08:31;;;;;;;35.17;14.73;;;;;;;6.50;100.00;102608.56;6256436;28;20353;-74
2023/12/18 11:11:35;;;;;;;35.00;13.05;;;;;;;6.51;100.00;102617.25;6271820;28;20053;-74
2023/12/18 11:14:49;;;;;;;38.88;13.65;;;;;;;6.49;100.00;102598.09;6278120;28;20350;-74
2023/12/18 11:17:59;;;;;;;33.33;13.35;;;;;;;6.52;100.00;102585.03;6262625;28;20045;-75
2023/12/18 11:21:00;;;;;;;32.33;14.60;;;;;;;6.45;100.00;102581.59;6279203;28;20049;-74
2023/12/18 11:24:03;;;;;;;37.42;15.23;;;;;;;6.45;100.00;102581.59;6275959;28;20053;-74
2023/12/18 11:27:06;;;;;;;31.27;13.15;;;;;;;6.52;100.00;102570.22;6268057;28;20052;-74
2023/12/18 11:30:22;;;;;;;31.00;11.77;;;;;;;6.54;100.00;102567.59;6278846;28;20067;-73
2023/12/18 11:33:26;;;;;;;30.85;14.52;;;;;;;6.60;100.00;102562.34;6275072;28;20045;-74
2023/12/18 11:36:27;;;;;;;36.60;14.93;;;;;;;6.55;100.00;102558.91;6253511;28;20056;-73
2023/12/18 11:39:37;;;;;;;32.75;14.00;;;;;;;6.60;100.00;102560.59;6253966;28;20434;-74
2023/12/18 11:42:47;;;;;;;30.75;13.60;;;;;;;6.64;100.00;102561.44;6253908;28;20461;-74
2023/12/18 11:45:50;;;;;;;29.60;13.27;;;;;;;6.64;100.00;102557.97;6253597;28;20069;-74
2023/12/18 11:48:52;;;;;;;29.60;11.93;;;;;;;6.66;100.00;102558.81;6254085;28;20045;-74
2023/12/18 11:51:53;;;;;;;31.10;12.93;;;;;;;6.61;100.00;102558.84;6253639;28;20049;-74
2023/12/18 11:54:54;;;;;;;36.63;13.48;;;;;;;6.66;100.00;102550.97;6253230;28;20049;-75
2023/12/18 11:57:56;;;;;;;35.13;14.23;;;;;;;6.65;100.00;102542.25;6253758;28;20061;-75
2023/12/18 12:00:58;;;;;;;33.08;12.82;;;;;;;6.67;100.00;102537.00;6253716;28;20358;-74
2023/12/18 12:04:00;;;;;;;29.25;11.80;;;;;;;6.66;100.00;102546.59;6263080;28;20472;-74
2023/12/18 12:07:01;;;;;;;32.45;12.57;;;;;;;6.69;100.00;102537.88;6277098;28;20060;-74
2023/12/18 12:10:03;;;;;;;43.00;13.48;;;;;;;6.65;100.00;102525.72;6277057;28;20052;-74
2023/12/18 12:13:04;;;;;;;38.95;14.00;;;;;;;6.61;100.00;102530.09;6277058;28;20048;-75
2023/12/18 12:16:07;;;;;;;26.25;13.27;;;;;;;6.62;100.00;102531.81;6271030;28;20060;-74
2023/12/18 12:19:08;;;;;;;38.70;13.43;;;;;;;6.64;100.00;102532.69;6267642;28;20422;-74
2023/12/18 12:22:12;;;;;;;34.13;13.90;;;;;;;6.66;100.00;102533.53;6266631;28;20045;-74
2023/12/18 12:25:13;;;;;;;35.72;13.07;;;;;;;6.60;100.00;102538.81;6268855;28;20437;-74
2023/12/18 12:28:15;;;;;;;30.38;13.07;;;;;;;6.65;100.00;102534.44;6277812;28;20048;-75
2023/12/18 12:31:18;;;;;;;34.58;13.00;;;;;;;6.65;100.00;102538.78;6263357;28;20430;-74
2023/12/18 12:34:20;;;;;;;30.20;12.35;;;;;;;6.57;100.00;102531.88;6275250;28;20053;-74
2023/12/18 12:37:22;;;;;;;34.30;12.90;;;;;;;6.54;100.00;102533.63;6252680;28;20053;-74
2023/12/18 12:40:23;;;;;;;30.60;12.18;;;;;;;6.54;100.00;102529.28;6252539;28;20345;-75
2023/12/18 12:43:25;;;;;;;31.08;12.82;;;;;;;6.59;100.00;102537.09;6240206;28;20060;-74
2023/12/18 12:46:28;;;;;;;28.15;12.52;;;;;;;6.61;100.00;102528.34;6235311;28;20360;-74
2023/12/18 12:49:29;;;;;;;38.78;14.13;;;;;;;6.66;100.00;102523.09;6260171;28;20354;-74
2023/12/18 12:52:30;;;;;;;27.48;12.63;;;;;;;6.68;100.00;102533.53;6238112;28;20054;-75
2023/12/18 12:55:32;;;;;;;27.35;11.32;;;;;;;6.65;100.00;102523.97;6237803;28;20441;-75
2023/12/18 12:58:33;;;;;;;26.40;12.88;;;;;;;6.69;100.00;102519.59;6238468;28;20057;-74
2023/12/18 13:01:36;;;;;;;26.60;12.80;;;;;;;6.69;100.00;102506.53;6238275;28;20128;-74
2023/12/18 13:04:37;;;;;;;29.33;11.65;;;;;;;6.70;100.00;102500.44;6249531;28;20041;-74
2023/12/18 13:07:39;;;;;;;31.92;12.18;;;;;;;6.82;100.00;102497.72;6237915;28;20052;-74
2023/12/18 13:10:40;;;;;;;30.35;13.73;;;;;;;6.80;100.00;102492.47;6246883;28;20052;-74
2023/12/18 13:13:42;;;;;;;33.75;13.25;;;;;;;6.81;100.00;102488.09;6251081;28;20521;-73
2023/12/18 13:16:45;;;;;;;35.05;12.05;;;;;;;6.80;100.00;102492.47;6251750;28;20053;-74
2023/12/18 13:19:46;;;;;;;35.13;13.60;;;;;;;6.82;100.00;102492.47;6248579;28;20327;-73
2023/12/18 13:22:48;;;;;;;30.58;12.70;;;;;;;6.83;100.00;102475.91;6251758;28;20449;-74
2023/12/18 13:25:50;;;;;;;27.70;12.98;;;;;;;6.84;100.00;102475.88;6251237;28;20056;-75
2023/12/18 13:28:51;;;;;;;35.45;12.75;;;;;;;6.90;100.00;102485.41;6251897;28;20070;-72
2023/12/18 13:31:54;;;;;;;31.50;13.23;;;;;;;6.92;100.00;102488.88;6251284;28;20365;-73
2023/12/18 13:34:55;;;;;;;33.55;14.27;;;;;;;6.85;100.00;102493.28;6256698;28;20089;-74
2023/12/18 13:37:57;;;;;;;33.60;13.60;;;;;;;6.86;100.00;102479.38;6275993;28;20052;-75
2023/12/18 13:40:58;;;;;;;32.05;12.65;;;;;;;6.74;100.00;102478.63;6276059;28;20052;-75
2023/12/18 13:44:00;;;;;;;37.42;13.68;;;;;;;6.82;100.00;102469.81;6275525;28;20053;-74
2023/12/18 13:47:05;;;;;;;27.30;12.75;;;;;;;6.77;100.00;102470.75;6276016;28;20045;-75
2023/12/18 13:50:07;;;;;;;35.22;13.00;;;;;;;6.76;100.00;102471.63;6275863;28;20597;-75
2023/12/18 13:53:09;;;;;;;31.25;12.57;;;;;;;6.82;100.00;102463.75;6275610;28;20049;-74